This is the latest recevied weather packets stored in our database for station/object K7DC. If no packets are shown the sender has not sent any weather packets the latest 10 day(s).
| Time | Temp. | Humidity | Pressure | Rain* | Wind** | Luminosity | Snow |
|---|---|---|---|---|---|---|---|
| 1778018252 | 25.56° C | 26% | 1010.9 hPa | 0 mm | - | 727 W/m² | - |
| 1778017344 | 26.11° C | 28% | 1011.2 hPa | 0 mm | - | 793 W/m² | - |
| 1778017041 | 25.56° C | 29% | 1011.2 hPa | 0 mm | - | 148 W/m² | - |
| 1778016434 | 26.11° C | 28% | 1011.3 hPa | 0 mm | - | 186 W/m² | - |
| 1778016132 | 25.56° C | 29% | 1011.3 hPa | 0 mm | - | 883 W/m² | - |
| 1778015828 | 26.67° C | 28% | 1011.1 hPa | 0 mm | - | 822 W/m² | - |
| 1778015526 | 26.11° C | 29% | 1011.5 hPa | 0 mm | - | 865 W/m² | - |
| 1778014919 | 25° C | 32% | 1011.4 hPa | 0 mm | - | 167 W/m² | - |
| 1778014617 | 25° C | 32% | 1011.4 hPa | 0 mm | - | 219 W/m² | - |
| 1778014315 | 25° C | 33% | 1011.3 hPa | 0 mm | - | 707 W/m² | - |
| 1778014011 | 25.56° C | 33% | 1011.6 hPa | 0 mm | - | 160 W/m² | - |
| 1778013406 | 25° C | 32% | 1011.7 hPa | 0 mm | - | 222 W/m² | - |
| 1778013103 | 23.89° C | 35% | 1011.6 hPa | 0 mm | - | 821 W/m² | - |
| 1778012798 | 25° C | 33% | 1011.6 hPa | 0 mm | - | 185 W/m² | - |
| 1778012494 | 25° C | 33% | 1011.6 hPa | 0 mm | - | 1045 W/m² | - |
| 1778012191 | 24.44° C | 35% | 1011.7 hPa | 0 mm | - | 245 W/m² | - |
| 1778011587 | 24.44° C | 37% | 1011.7 hPa | 0 mm | - | 398 W/m² | - |
| 1778011284 | 25° C | 36% | 1011.9 hPa | 0 mm | - | 863 W/m² | - |
| 1778010980 | 25.56° C | 34% | 1011.8 hPa | 0 mm | - | 1043 W/m² | - |
| 1778009767 | 25° C | 34% | 1011.8 hPa | 0 mm | - | 1138 W/m² | - |
| 1778009464 | 24.44° C | 35% | 1011.9 hPa | 0 mm | - | 947 W/m² | - |
| 1778009163 | 24.44° C | 36% | 1011.8 hPa | 0 mm | - | 1140 W/m² | - |
| 1778008860 | 25° C | 35% | 1011.9 hPa | 0 mm | - | 1035 W/m² | - |
| 1778008558 | 24.44° C | 37% | 1012.1 hPa | 0 mm | - | 1080 W/m² | - |
| 1778008255 | 24.44° C | 39% | 1011.9 hPa | 0 mm | - | 776 W/m² | - |
* Rain latest hour (hover to see other rain measurements)
** Current wind speed in m/s (hover to see current wind gust speed)